Time;durP1;ratioP1;P1;durP2;ratioP2;P2;SDS_P1;SDS_P2;PMS_P1;PMS_P2;Temp;Humidity;BMP_temperature;BMP_pressure;BME280_temperature;BME280_humidity;BME280_pressure;Samples;Min_cycle;Max_cycle;Signal;HPM_P1;HPM_P2
2022/05/21 00:01:45;;;;;;;2.50;2.30;;;24.30;54.80;;;;;;4975591;28;20205;-69
2022/05/21 00:04:12;;;;;;;2.47;2.28;;;24.30;54.80;;;;;;4975806;28;20321;-69
2022/05/21 00:06:40;;;;;;;2.50;2.30;;;24.30;54.80;;;;;;4974412;28;20218;-69
2022/05/21 00:09:08;;;;;;;2.60;2.40;;;24.30;54.80;;;;;;4975572;28;20313;-69
2022/05/21 00:11:37;;;;;;;2.45;2.25;;;24.20;54.80;;;;;;4975810;28;20198;-69
2022/05/21 00:14:04;;;;;;;2.78;2.58;;;24.20;54.70;;;;;;4975453;28;20202;-68
2022/05/21 00:16:31;;;;;;;2.47;2.30;;;24.20;54.80;;;;;;4975642;28;20728;-69
2022/05/21 00:18:57;;;;;;;2.53;2.40;;;24.20;54.90;;;;;;4977151;28;20214;-69
2022/05/21 00:21:25;;;;;;;2.13;2.03;;;24.20;54.90;;;;;;4975562;28;20198;-69
2022/05/21 00:23:52;;;;;;;2.50;2.30;;;24.20;54.90;;;;;;4975582;28;20224;-69
2022/05/21 00:26:19;;;;;;;2.70;2.50;;;24.20;55.50;;;;;;4981587;28;20230;-68
2022/05/21 00:28:47;;;;;;;2.22;2.13;;;24.10;54.80;;;;;;4981458;28;20218;-69
2022/05/21 00:31:16;;;;;;;2.50;2.30;;;24.10;54.80;;;;;;4975710;28;20201;-68
2022/05/21 00:33:43;;;;;;;2.60;2.40;;;24.10;54.80;;;;;;4982614;28;20277;-69
2022/05/21 00:36:12;;;;;;;2.80;2.60;;;24.10;54.70;;;;;;4980502;28;20214;-69
2022/05/21 00:38:40;;;;;;;2.20;2.10;;;24.00;54.70;;;;;;4980644;28;20222;-69
2022/05/21 00:41:08;;;;;;;2.28;2.17;;;24.00;54.70;;;;;;4980281;28;20213;-69
2022/05/21 00:43:38;;;;;;;2.50;2.38;;;24.00;54.70;;;;;;4980510;28;20333;-68
2022/05/21 00:46:08;;;;;;;2.50;2.30;;;24.00;54.70;;;;;;4980141;28;20225;-69
2022/05/21 00:48:35;;;;;;;2.60;2.40;;;24.00;54.80;;;;;;4978020;28;20228;-69
2022/05/21 00:51:02;;;;;;;2.42;2.33;;;24.00;54.70;;;;;;4975131;28;20269;-69
2022/05/21 00:53:30;;;;;;;2.53;2.30;;;24.00;54.70;;;;;;4976402;28;20195;-69
2022/05/21 00:55:58;;;;;;;2.40;2.20;;;24.00;54.80;;;;;;4975846;28;20206;-68
2022/05/21 01:01:13;;;;;;;2.28;2.08;;;23.90;54.70;;;;;;4974625;28;20198;-69
2022/05/21 01:03:41;;;;;;;2.30;2.20;;;23.90;54.80;;;;;;4974884;28;20694;-69
2022/05/21 01:06:08;;;;;;;2.15;2.05;;;23.90;54.80;;;;;;4975198;28;20276;-69
2022/05/21 01:08:37;;;;;;;2.30;2.10;;;23.90;54.80;;;;;;4975984;28;20213;-68
2022/05/21 01:11:07;;;;;;;2.33;2.20;;;23.90;54.80;;;;;;4974778;28;20260;-69
2022/05/21 01:13:35;;;;;;;2.47;2.28;;;23.80;54.70;;;;;;4974933;28;20233;-69
2022/05/21 01:16:02;;;;;;;2.40;2.20;;;23.80;54.70;;;;;;4979266;28;20218;-69
2022/05/21 01:18:30;;;;;;;2.50;2.22;;;23.80;54.70;;;;;;4977874;28;20222;-69
2022/05/21 01:20:58;;;;;;;2.50;2.30;;;23.80;54.90;;;;;;4976465;28;20198;-69
2022/05/21 01:23:28;;;;;;;2.03;1.92;;;23.80;54.80;;;;;;4975782;28;20278;-69
2022/05/21 01:25:55;;;;;;;2.60;2.42;;;23.80;54.80;;;;;;4974181;28;20596;-69
2022/05/21 01:28:24;;;;;;;2.28;2.17;;;23.80;54.90;;;;;;4975561;28;20214;-69
2022/05/21 01:30:52;;;;;;;2.40;2.30;;;23.70;54.80;;;;;;4974266;28;20213;-68
2022/05/21 01:33:20;;;;;;;2.72;2.42;;;23.70;54.90;;;;;;4973866;28;20201;-69
2022/05/21 01:35:47;;;;;;;2.50;2.30;;;23.60;54.70;;;;;;4974172;28;20645;-69
2022/05/21 01:38:17;;;;;;;2.13;2.03;;;23.70;54.80;;;;;;4974069;28;20221;-69
2022/05/21 01:40:45;;;;;;;2.28;2.17;;;23.70;54.80;;;;;;4974866;28;20201;-69
2022/05/21 01:45:57;;;;;;;2.58;2.30;;;23.70;54.90;;;;;;4974422;28;20269;-69
2022/05/21 01:48:25;;;;;;;2.30;2.20;;;23.60;54.80;;;;;;4974331;28;20277;-69
2022/05/21 01:50:53;;;;;;;2.08;1.98;;;23.60;54.80;;;;;;4975469;28;20194;-69
2022/05/21 01:53:20;;;;;;;2.13;2.03;;;23.60;54.90;;;;;;4974273;28;20198;-69
2022/05/21 01:55:49;;;;;;;2.17;2.08;;;23.60;54.80;;;;;;4974240;28;20214;-68
2022/05/21 01:58:16;;;;;;;2.20;2.10;;;23.50;54.80;;;;;;4973788;28;20720;-69
2022/05/21 02:00:43;;;;;;;2.20;2.10;;;23.50;54.80;;;;;;4975510;28;20198;-69
2022/05/21 02:03:10;;;;;;;2.33;2.13;;;23.50;54.80;;;;;;4973785;28;20200;-69
2022/05/21 02:05:37;;;;;;;2.17;2.08;;;23.50;55.00;;;;;;4973979;28;20194;-69
2022/05/21 02:08:05;;;;;;;2.30;2.10;;;23.50;54.90;;;;;;4976508;28;20300;-69
2022/05/21 02:10:32;;;;;;;2.35;2.20;;;23.50;54.90;;;;;;4975467;28;20570;-69
2022/05/21 02:13:02;;;;;;;2.30;2.20;;;23.50;54.70;;;;;;4975045;28;20204;-72
2022/05/21 02:15:29;;;;;;;2.15;1.88;;;23.40;54.70;;;;;;4975607;28;20581;-72
2022/05/21 02:17:56;;;;;;;2.20;1.98;;;23.40;55.20;;;;;;4974286;28;20238;-72
2022/05/21 02:20:23;;;;;;;1.90;1.80;;;23.40;54.70;;;;;;4975331;28;20559;-72
2022/05/21 02:22:50;;;;;;;2.20;2.00;;;23.40;54.60;;;;;;4974938;28;20186;-72
2022/05/21 02:25:19;;;;;;;2.55;1.98;;;23.40;54.70;;;;;;4973848;28;20249;-72
2022/05/21 02:27:46;;;;;;;2.00;1.90;;;23.40;54.70;;;;;;4973897;28;20620;-72
2022/05/21 02:30:15;;;;;;;2.10;1.90;;;23.40;54.60;;;;;;4976687;28;20245;-72
2022/05/21 02:32:42;;;;;;;2.05;1.85;;;23.40;54.60;;;;;;4977378;28;20198;-72
2022/05/21 02:35:10;;;;;;;2.33;2.00;;;23.30;54.60;;;;;;4977641;28;20737;-71
2022/05/21 02:40:24;;;;;;;2.05;1.95;;;23.30;54.80;;;;;;4977793;28;20194;-72
2022/05/21 02:42:51;;;;;;;2.17;2.08;;;23.30;54.70;;;;;;4978874;28;20197;-72
2022/05/21 02:45:20;;;;;;;2.17;2.03;;;23.30;54.60;;;;;;4977192;28;20289;-72
2022/05/21 02:47:48;;;;;;;2.10;2.00;;;23.30;54.70;;;;;;4977481;28;20221;-71
2022/05/21 02:50:19;;;;;;;2.35;2.20;;;23.20;54.60;;;;;;4978312;28;20190;-72
2022/05/21 02:52:46;;;;;;;2.20;2.00;;;23.20;54.60;;;;;;4977665;28;20750;-72
2022/05/21 02:55:14;;;;;;;1.90;1.80;;;23.20;54.60;;;;;;4978657;28;20655;-72
2022/05/21 02:57:41;;;;;;;2.05;1.90;;;23.20;54.50;;;;;;4978750;28;20209;-72
2022/05/21 03:00:11;;;;;;;2.00;1.90;;;23.20;54.50;;;;;;4977267;28;20253;-72
2022/05/21 03:02:40;;;;;;;2.08;1.92;;;23.20;54.50;;;;;;4978518;28;20193;-72
2022/05/21 03:05:08;;;;;;;2.00;1.77;;;23.20;54.40;;;;;;4984542;28;20229;-72
2022/05/21 03:07:37;;;;;;;2.13;1.90;;;23.20;54.50;;;;;;5000900;28;20214;-71
2022/05/21 03:10:22;;;;;;;2.20;2.00;;;23.10;54.50;;;;;;4978742;28;20252;-72
2022/05/21 03:12:54;;;;;;;2.05;1.95;;;23.10;54.50;;;;;;4977039;28;20201;-72
2022/05/21 03:15:22;;;;;;;2.10;2.00;;;23.10;54.50;;;;;;4977557;28;20198;-72
2022/05/21 03:17:50;;;;;;;2.08;1.98;;;23.10;54.30;;;;;;4976595;28;20699;-72
2022/05/21 03:20:18;;;;;;;1.90;1.80;;;23.10;54.20;;;;;;4978090;28;20216;-72
2022/05/21 03:22:44;;;;;;;1.98;1.88;;;23.10;54.10;;;;;;4976445;28;20202;-72
2022/05/21 03:25:12;;;;;;;2.25;2.05;;;23.10;54.10;;;;;;4976389;28;20205;-72
2022/05/21 03:27:40;;;;;;;2.40;1.90;;;23.10;53.80;;;;;;4976111;28;20218;-72
2022/05/21 03:30:10;;;;;;;1.95;1.85;;;23.20;53.80;;;;;;4977668;28;20730;-72
2022/05/21 03:32:37;;;;;;;1.80;1.70;;;23.20;53.70;;;;;;4976134;28;20213;-72
2022/05/21 03:35:07;;;;;;;2.00;1.90;;;23.20;53.50;;;;;;4976474;28;20238;-72
2022/05/21 03:37:34;;;;;;;2.05;1.95;;;23.20;53.50;;;;;;4978023;28;20594;-72
2022/05/21 03:40:03;;;;;;;2.13;2.00;;;23.20;54.00;;;;;;4975960;28;20229;-72
2022/05/21 03:42:30;;;;;;;1.98;1.88;;;23.20;53.60;;;;;;4977519;28;20201;-72
2022/05/21 03:44:57;;;;;;;1.90;1.80;;;23.20;53.50;;;;;;4976149;28;20210;-72
2022/05/21 03:47:24;;;;;;;1.88;1.70;;;23.20;53.50;;;;;;4976104;28;20246;-72
2022/05/21 03:49:51;;;;;;;1.95;1.85;;;23.20;53.20;;;;;;4975901;28;20198;-71
2022/05/21 03:52:20;;;;;;;2.00;1.90;;;23.20;53.20;;;;;;4977311;28;20273;-72
2022/05/21 03:54:47;;;;;;;2.05;1.95;;;23.20;53.30;;;;;;4976047;28;20206;-72
2022/05/21 03:57:15;;;;;;;2.03;1.90;;;23.20;53.30;;;;;;4975610;28;20222;-72
2022/05/21 03:59:43;;;;;;;2.00;1.90;;;23.20;53.30;;;;;;4976022;28;20205;-72
2022/05/21 04:02:10;;;;;;;2.83;1.80;;;23.20;53.20;;;;;;4975831;28;20559;-72
2022/05/21 04:04:37;;;;;;;1.83;1.73;;;23.20;53.20;;;;;;4975611;28;20193;-72
2022/05/21 04:07:04;;;;;;;2.08;1.88;;;23.20;53.30;;;;;;4975969;28;20292;-71
2022/05/21 04:09:33;;;;;;;1.98;1.60;;;23.20;53.20;;;;;;4975653;28;20209;-72
2022/05/21 04:12:00;;;;;;;1.90;1.80;;;23.10;53.10;;;;;;4975553;28;20209;-72
2022/05/21 04:14:28;;;;;;;3.38;1.88;;;23.10;53.30;;;;;;4976200;28;20213;-72
2022/05/21 04:16:55;;;;;;;5.13;1.90;;;23.10;53.10;;;;;;4975801;28;20720;-72
2022/05/21 04:19:24;;;;;;;2.17;1.85;;;23.10;53.10;;;;;;4975931;28;20304;-71
2022/05/21 04:21:51;;;;;;;2.10;1.60;;;23.10;53.20;;;;;;4975860;28;20201;-72
2022/05/21 04:24:17;;;;;;;2.03;1.63;;;23.10;53.00;;;;;;4975749;28;20544;-72
2022/05/21 04:26:46;;;;;;;1.88;1.77;;;23.10;53.10;;;;;;4977017;28;20214;-72
2022/05/21 04:29:13;;;;;;;2.00;1.80;;;23.10;53.80;;;;;;4975559;28;20249;-72
2022/05/21 04:31:40;;;;;;;2.20;2.10;;;23.10;53.20;;;;;;4975804;28;20202;-72
2022/05/21 04:34:07;;;;;;;2.47;1.65;;;23.10;53.20;;;;;;4975292;28;20575;-71
2022/05/21 04:36:34;;;;;;;2.00;1.90;;;23.10;53.10;;;;;;4975502;28;20277;-72
2022/05/21 04:39:01;;;;;;;1.88;1.63;;;23.10;53.10;;;;;;4975884;28;20218;-72
2022/05/21 04:41:28;;;;;;;1.85;1.75;;;23.10;53.20;;;;;;4975414;28;20662;-71
2022/05/21 04:43:56;;;;;;;2.00;1.90;;;23.10;53.30;;;;;;4976601;28;20202;-72
2022/05/21 04:46:24;;;;;;;1.92;1.80;;;23.30;53.50;;;;;;4974843;28;20678;-71
2022/05/21 04:48:51;;;;;;;1.88;1.77;;;23.50;53.00;;;;;;4975641;28;20241;-72
2022/05/21 04:51:18;;;;;;;1.85;1.70;;;23.70;52.70;;;;;;4974662;28;20581;-72
2022/05/21 04:53:45;;;;;;;1.80;1.70;;;23.90;52.40;;;;;;4974964;28;20212;-72
2022/05/21 04:56:12;;;;;;;1.80;1.70;;;24.10;52.10;;;;;;4975010;28;20256;-72
2022/05/21 04:58:41;;;;;;;1.75;1.65;;;24.30;51.70;;;;;;4990626;28;20226;-72
2022/05/21 05:01:09;;;;;;;1.70;1.60;;;24.50;51.40;;;;;;4990652;28;20206;-72
2022/05/21 05:03:36;;;;;;;1.88;1.77;;;24.70;51.10;;;;;;4981443;28;20226;-72
2022/05/21 05:06:03;;;;;;;2.20;2.05;;;24.80;50.70;;;;;;4976144;28;20199;-72
2022/05/21 05:08:30;;;;;;;1.73;1.63;;;24.90;50.40;;;;;;4974587;28;20240;-72
2022/05/21 05:10:57;;;;;;;2.20;2.00;;;25.10;49.90;;;;;;4974965;28;20195;-72
2022/05/21 05:13:25;;;;;;;2.03;1.80;;;25.20;49.80;;;;;;4974602;28;20679;-72
2022/05/21 05:15:52;;;;;;;1.70;1.60;;;25.40;49.30;;;;;;4974919;28;20268;-71
2022/05/21 05:18:21;;;;;;;1.80;1.70;;;25.50;48.90;;;;;;4974551;28;20264;-72
2022/05/21 05:20:48;;;;;;;1.60;1.50;;;25.60;48.60;;;;;;4975784;28;20186;-72
2022/05/21 05:23:16;;;;;;;3.85;1.70;;;25.80;48.30;;;;;;4975625;28;20201;-72
2022/05/21 05:25:43;;;;;;;2.45;1.65;;;25.90;48.00;;;;;;4974131;28;20671;-72
2022/05/21 05:28:15;;;;;;;1.88;1.77;;;26.00;47.70;;;;;;4974136;28;20253;-71
2022/05/21 05:30:42;;;;;;;1.65;1.55;;;26.10;47.40;;;;;;4974590;28;20194;-72
2022/05/21 05:33:09;;;;;;;2.38;1.75;;;26.20;47.10;;;;;;4974188;28;20273;-72
2022/05/21 05:35:37;;;;;;;1.63;1.52;;;26.30;47.50;;;;;;4974918;28;20301;-72
2022/05/21 05:38:06;;;;;;;1.55;1.45;;;26.50;46.60;;;;;;4973839;28;20255;-72
2022/05/21 05:40:33;;;;;;;1.83;1.60;;;26.60;46.40;;;;;;4975148;28;20197;-72
2022/05/21 05:43:01;;;;;;;2.15;1.73;;;26.70;46.20;;;;;;4974263;28;20202;-71
2022/05/21 05:45:28;;;;;;;1.45;1.40;;;26.80;46.00;;;;;;4974188;28;20252;-72
2022/05/21 05:47:56;;;;;;;1.63;1.52;;;26.90;45.70;;;;;;4974038;28;20217;-72
2022/05/21 05:50:23;;;;;;;1.50;1.40;;;27.00;45.40;;;;;;4974067;28;20240;-71
2022/05/21 05:52:51;;;;;;;1.58;1.48;;;27.10;45.30;;;;;;4975551;28;20204;-72
2022/05/21 05:55:18;;;;;;;1.35;1.30;;;27.20;45.00;;;;;;4973934;28;20202;-71
2022/05/21 05:57:50;;;;;;;1.48;1.40;;;27.30;45.00;;;;;;4973684;28;20772;-72
2022/05/21 06:00:17;;;;;;;1.70;1.60;;;27.40;44.60;;;;;;4974050;28;20202;-72
2022/05/21 06:02:59;;;;;;;1.95;1.50;;;27.50;44.40;;;;;;4975183;28;20209;-72
2022/05/21 06:05:27;;;;;;;1.50;1.40;;;27.50;44.30;;;;;;4975107;28;20190;-72
2022/05/21 06:07:58;;;;;;;1.33;1.30;;;27.60;44.20;;;;;;4974812;28;20202;-72
2022/05/21 06:10:26;;;;;;;1.58;1.48;;;27.70;44.00;;;;;;4975096;28;20202;-72
2022/05/21 06:12:53;;;;;;;1.70;1.33;;;27.80;43.90;;;;;;4973668;28;20225;-72
2022/05/21 06:15:20;;;;;;;1.40;1.30;;;27.80;43.70;;;;;;4975139;28;20276;-72
2022/05/21 06:17:49;;;;;;;1.40;1.30;;;27.90;43.60;;;;;;4973600;28;20296;-72
2022/05/21 06:20:17;;;;;;;1.50;1.40;;;28.00;43.40;;;;;;4974094;28;20194;-72
2022/05/21 06:22:46;;;;;;;1.35;1.25;;;28.00;43.20;;;;;;4974009;28;20252;-72
2022/05/21 06:25:17;;;;;;;1.50;1.40;;;28.10;43.00;;;;;;4973475;28;20205;-72
2022/05/21 06:27:44;;;;;;;1.50;1.40;;;28.20;42.80;;;;;;4974157;28;20368;-72
2022/05/21 06:30:12;;;;;;;1.60;1.50;;;28.20;42.60;;;;;;4974787;28;20197;-72
2022/05/21 06:32:39;;;;;;;1.52;1.42;;;28.30;42.60;;;;;;4974418;28;20190;-72
2022/05/21 06:35:07;;;;;;;1.42;1.33;;;28.40;42.40;;;;;;4974928;28;20190;-72
2022/05/21 06:37:34;;;;;;;1.20;1.13;;;28.40;42.20;;;;;;4973572;28;20233;-72
2022/05/21 06:40:00;;;;;;;1.23;1.23;;;28.50;41.90;;;;;;4974685;28;20189;-72
2022/05/21 06:42:29;;;;;;;1.40;1.30;;;28.60;41.80;;;;;;4974318;28;20189;-72
2022/05/21 06:44:57;;;;;;;1.45;1.40;;;28.60;41.70;;;;;;4973257;28;20285;-72
2022/05/21 06:47:26;;;;;;;1.40;1.30;;;28.60;41.60;;;;;;4974426;28;20532;-72
2022/05/21 06:49:53;;;;;;;1.48;1.38;;;28.70;41.50;;;;;;4973133;28;20198;-72
2022/05/21 06:52:21;;;;;;;1.55;1.45;;;28.70;41.40;;;;;;4973159;28;20197;-72
2022/05/21 06:54:48;;;;;;;1.13;1.13;;;28.80;41.20;;;;;;4974663;28;20196;-73
2022/05/21 06:57:15;;;;;;;2.15;1.35;;;28.80;41.00;;;;;;4975394;28;20690;-72
2022/05/21 06:59:43;;;;;;;1.10;1.10;;;28.90;41.00;;;;;;4974578;28;20208;-72
2022/05/21 07:02:10;;;;;;;1.27;1.27;;;28.90;40.90;;;;;;4973612;28;20606;-72
2022/05/21 07:07:34;;;;;;;1.40;1.30;;;28.90;40.70;;;;;;4973361;28;20214;-72
2022/05/21 07:10:04;;;;;;;1.13;1.10;;;28.90;40.70;;;;;;4974222;28;20253;-72
2022/05/21 07:12:31;;;;;;;1.35;1.10;;;28.90;40.70;;;;;;4974043;28;20189;-72
2022/05/21 07:15:00;;;;;;;1.30;1.30;;;29.00;40.60;;;;;;4973897;28;20263;-72
2022/05/21 07:17:27;;;;;;;1.50;1.40;;;29.00;40.40;;;;;;4977902;28;20701;-72
2022/05/21 07:19:54;;;;;;;1.30;1.30;;;29.10;40.30;;;;;;4978478;28;20559;-72
2022/05/21 07:22:21;;;;;;;1.10;1.10;;;29.10;40.30;;;;;;4977684;28;20240;-72
2022/05/21 07:24:48;;;;;;;1.20;1.20;;;29.20;40.10;;;;;;4976410;28;20220;-72
2022/05/21 07:27:15;;;;;;;1.30;1.20;;;29.20;40.00;;;;;;4977794;28;20726;-72
2022/05/21 07:29:43;;;;;;;1.30;1.20;;;29.30;40.60;;;;;;4976674;28;20255;-72
2022/05/21 07:32:18;;;;;;;1.23;1.20;;;29.30;39.80;;;;;;4976104;28;20720;-72
2022/05/21 07:34:45;;;;;;;1.25;1.17;;;29.40;39.80;;;;;;4976530;28;20193;-72
2022/05/21 07:37:12;;;;;;;1.30;1.30;;;29.40;39.60;;;;;;4975903;28;20224;-72
2022/05/21 07:39:41;;;;;;;1.30;1.20;;;29.40;39.60;;;;;;4977665;28;20241;-72
2022/05/21 07:42:08;;;;;;;1.20;1.20;;;29.50;39.60;;;;;;4976214;28;20197;-72
2022/05/21 07:44:35;;;;;;;1.30;1.20;;;29.50;39.50;;;;;;4977317;28;20333;-72
2022/05/21 07:47:02;;;;;;;1.17;1.17;;;29.60;39.30;;;;;;4976895;28;20213;-72
2022/05/21 07:49:31;;;;;;;1.42;1.33;;;29.60;39.30;;;;;;4976199;28;20650;-72
2022/05/21 07:51:59;;;;;;;1.10;1.10;;;29.60;39.00;;;;;;4977522;28;20269;-72
2022/05/21 07:54:26;;;;;;;1.40;1.30;;;29.70;39.00;;;;;;4977605;28;20201;-72
2022/05/21 07:56:53;;;;;;;1.08;1.08;;;29.70;38.90;;;;;;4975732;28;20192;-72
2022/05/21 07:59:20;;;;;;;1.42;1.30;;;29.70;38.90;;;;;;4976675;28;20765;-72
2022/05/21 08:01:50;;;;;;;1.05;1.05;;;29.70;38.80;;;;;;4976332;28;20197;-72
2022/05/21 08:06:52;;;;;;;1.27;1.27;;;29.70;38.80;;;;;;4975400;28;20220;-63
2022/05/21 08:09:21;;;;;;;1.38;1.10;;;29.70;38.80;;;;;;4975737;28;20202;-62
2022/05/21 08:11:49;;;;;;;1.23;1.23;;;29.70;38.70;;;;;;4975226;28;20681;-62
2022/05/21 08:14:18;;;;;;;1.10;1.10;;;29.80;38.80;;;;;;4979689;28;20205;-62
2022/05/21 08:16:45;;;;;;;1.30;1.23;;;29.80;38.70;;;;;;4977977;28;20251;-62
2022/05/21 08:19:13;;;;;;;1.10;1.10;;;29.80;38.40;;;;;;4978299;28;20621;-63
2022/05/21 08:27:35;;;;;;;1.45;1.30;;;29.90;38.30;;;;;;4980759;28;20197;-62
2022/05/21 08:30:02;;;;;;;1.08;1.08;;;29.90;38.40;;;;;;4975351;28;20189;-62
2022/05/21 08:32:30;;;;;;;1.58;1.48;;;29.90;38.50;;;;;;4976390;28;20214;-62
2022/05/21 08:34:57;;;;;;;1.17;1.17;;;29.90;38.50;;;;;;4976477;28;20300;-63
2022/05/21 08:37:27;;;;;;;1.70;1.20;;;29.90;38.50;;;;;;4984636;28;20209;-69
2022/05/21 08:39:54;;;;;;;1.20;1.10;;;29.90;38.40;;;;;;4989412;28;20209;-62
2022/05/21 08:42:26;;;;;;;1.85;1.08;;;29.90;38.60;;;;;;4974885;28;20673;-63
2022/05/21 08:44:57;;;;;;;1.00;1.00;;;29.90;38.60;;;;;;4974968;28;20249;-62
2022/05/21 08:47:29;;;;;;;1.48;1.10;;;29.80;38.60;;;;;;4975048;28;20200;-63
2022/05/21 08:49:58;;;;;;;1.15;1.10;;;29.80;39.20;;;;;;4975123;28;20197;-62
2022/05/21 08:52:29;;;;;;;1.05;1.05;;;29.80;38.60;;;;;;4975181;28;20269;-62
2022/05/21 08:54:58;;;;;;;1.00;1.00;;;29.80;38.80;;;;;;4975977;28;20216;-62
2022/05/21 08:57:28;;;;;;;1.05;1.05;;;29.80;39.50;;;;;;4976208;28;20219;-62
2022/05/21 08:59:58;;;;;;;0.90;0.90;;;29.80;38.70;;;;;;4975757;28;20194;-62
2022/05/21 09:02:30;;;;;;;1.05;1.05;;;29.80;38.50;;;;;;4975750;28;20261;-62
2022/05/21 09:04:57;;;;;;;1.10;1.10;;;29.80;39.00;;;;;;4975514;28;20676;-62
2022/05/21 09:07:28;;;;;;;1.20;1.20;;;29.80;38.80;;;;;;4974225;28;20197;-62
2022/05/21 09:10:11;;;;;;;1.10;1.10;;;29.70;38.80;;;;;;4974319;28;20200;-63
2022/05/21 09:12:43;;;;;;;1.83;1.15;;;29.70;38.90;;;;;;4975897;28;20645;-62
2022/05/21 09:18:20;;;;;;;1.20;1.20;;;29.70;39.10;;;;;;4975425;28;20197;-62
2022/05/21 09:20:49;;;;;;;1.17;1.17;;;29.70;39.10;;;;;;4973970;28;20740;-62
2022/05/21 09:23:17;;;;;;;1.35;1.25;;;29.70;39.10;;;;;;4975059;28;20305;-62
2022/05/21 09:25:45;;;;;;;1.20;1.20;;;29.70;39.10;;;;;;4973943;28;20221;-62
2022/05/21 09:28:13;;;;;;;1.35;1.25;;;29.60;39.10;;;;;;4975251;28;20221;-62
2022/05/21 09:30:41;;;;;;;1.08;1.08;;;29.70;39.20;;;;;;4975372;28;20189;-62
2022/05/21 09:33:25;;;;;;;1.15;1.13;;;29.60;39.30;;;;;;4975076;28;20221;-62
2022/05/21 09:35:55;;;;;;;0.98;0.98;;;29.50;39.50;;;;;;4974327;28;20186;-62
2022/05/21 09:38:25;;;;;;;1.00;0.95;;;29.40;39.60;;;;;;4977399;28;20588;-63
2022/05/21 09:41:21;;;;;;;1.15;1.15;;;29.40;39.60;;;;;;4974040;28;20190;-62
2022/05/21 09:46:39;;;;;;;1.15;1.15;;;29.30;39.80;;;;;;4958344;28;20216;-63
2022/05/21 09:49:24;;;;;;;1.00;1.00;;;29.20;39.80;;;;;;4974934;28;20185;-62
2022/05/21 09:51:56;;;;;;;1.40;1.15;;;29.20;40.10;;;;;;4973525;28;20190;-62
2022/05/21 09:54:26;;;;;;;1.15;1.10;;;29.20;40.10;;;;;;4974971;28;20280;-62
2022/05/21 09:56:54;;;;;;;0.95;0.95;;;29.10;40.00;;;;;;4973400;28;20584;-62
2022/05/21 09:59:22;;;;;;;1.20;1.20;;;29.10;40.10;;;;;;4973210;28;20408;-62
2022/05/21 10:01:53;;;;;;;1.38;1.27;;;29.10;40.30;;;;;;4974528;28;20189;-62
2022/05/21 10:04:23;;;;;;;0.95;0.95;;;29.10;40.30;;;;;;4973150;28;20221;-62
2022/05/21 10:06:53;;;;;;;1.13;1.13;;;29.00;40.30;;;;;;4973769;28;20197;-62
2022/05/21 10:12:11;;;;;;;1.10;1.00;;;29.00;40.50;;;;;;4974374;28;20178;-62
2022/05/21 10:14:41;;;;;;;1.10;1.10;;;29.00;40.60;;;;;;4974286;28;20213;-62
2022/05/21 10:17:10;;;;;;;1.00;1.00;;;29.00;40.60;;;;;;4974431;28;20595;-62
2022/05/21 10:19:40;;;;;;;1.00;1.00;;;28.90;40.70;;;;;;4974490;28;20233;-62
2022/05/21 10:22:16;;;;;;;1.10;1.10;;;28.90;40.70;;;;;;4973266;28;20194;-62
2022/05/21 10:24:55;;;;;;;1.10;1.00;;;28.90;40.70;;;;;;4974353;28;20221;-62
2022/05/21 10:27:30;;;;;;;1.20;1.20;;;28.90;40.90;;;;;;4974148;28;20622;-62
2022/05/21 10:30:03;;;;;;;1.00;1.00;;;28.90;41.00;;;;;;4974418;28;20769;-62
2022/05/21 10:32:47;;;;;;;1.10;1.10;;;28.80;41.10;;;;;;4974243;28;20236;-62
2022/05/21 10:35:24;;;;;;;1.60;1.10;;;28.80;41.20;;;;;;4973121;28;20208;-62
2022/05/21 10:37:57;;;;;;;1.00;1.00;;;28.70;41.30;;;;;;4974424;28;20711;-63
2022/05/21 10:40:30;;;;;;;1.00;1.00;;;28.60;41.50;;;;;;4974081;28;20190;-62
2022/05/21 10:43:20;;;;;;;1.10;1.10;;;28.60;41.50;;;;;;4973200;28;20198;-62
2022/05/21 10:45:53;;;;;;;1.10;1.10;;;28.60;41.60;;;;;;4973984;28;20348;-62
2022/05/21 10:48:48;;;;;;;1.17;1.17;;;28.50;41.70;;;;;;4972836;28;20201;-63
2022/05/21 10:51:17;;;;;;;1.13;1.13;;;28.50;41.90;;;;;;4975793;28;20652;-63
2022/05/21 10:54:07;;;;;;;1.00;1.00;;;28.50;42.00;;;;;;4977839;28;20566;-62
2022/05/21 10:56:45;;;;;;;1.00;1.00;;;28.40;42.10;;;;;;4973510;28;20576;-62
2022/05/21 10:59:25;;;;;;;1.00;1.00;;;28.40;42.20;;;;;;4976443;28;20304;-63
2022/05/21 11:02:25;;;;;;;1.00;1.00;;;28.30;42.20;;;;;;4977880;28;20181;-62
2022/05/21 11:05:05;;;;;;;1.20;1.20;;;28.30;42.40;;;;;;4977601;28;20217;-62
2022/05/21 11:07:42;;;;;;;1.10;1.10;;;28.30;42.50;;;;;;4976047;28;20220;-63
2022/05/21 11:10:17;;;;;;;0.90;0.90;;;28.20;42.60;;;;;;4976250;28;20190;-62
2022/05/21 11:12:51;;;;;;;1.15;1.05;;;28.20;42.60;;;;;;4977417;28;20192;-62
2022/05/21 11:15:25;;;;;;;1.02;1.02;;;28.20;42.60;;;;;;4977390;28;20408;-62
2022/05/21 11:17:54;;;;;;;1.00;1.00;;;28.10;42.50;;;;;;4977514;28;20182;-62
2022/05/21 11:20:23;;;;;;;0.90;0.90;;;28.10;42.70;;;;;;4975885;28;20205;-62
2022/05/21 11:22:54;;;;;;;1.00;1.00;;;28.10;42.80;;;;;;4975739;28;20252;-62
2022/05/21 11:25:23;;;;;;;1.02;1.02;;;28.10;42.90;;;;;;4977135;28;20170;-62
2022/05/21 11:27:54;;;;;;;1.98;1.10;;;28.10;43.00;;;;;;4976923;28;20248;-62
2022/05/21 11:30:23;;;;;;;1.10;1.10;;;28.10;43.00;;;;;;4976083;28;20269;-62
2022/05/21 11:38:27;;;;;;;1.10;1.10;;;28.00;43.20;;;;;;4976956;28;20684;-62
2022/05/21 11:46:57;;;;;;;1.10;1.10;;;27.90;43.40;;;;;;4976538;28;20186;-62
2022/05/21 11:49:34;;;;;;;1.20;1.20;;;27.90;43.60;;;;;;4976901;28;20546;-62
2022/05/21 11:52:17;;;;;;;0.95;0.95;;;27.90;43.70;;;;;;4976818;28;20177;-62
2022/05/21 11:55:14;;;;;;;1.15;1.13;;;27.90;43.70;;;;;;4974924;28;20212;-62
2022/05/21 11:57:42;;;;;;;1.08;1.05;;;27.80;43.80;;;;;;4963105;28;20205;-62
2022/05/21 12:00:11;;;;;;;1.23;0.90;;;27.80;43.80;;;;;;4975039;28;20228;-62
2022/05/21 12:03:12;;;;;;;0.90;0.90;;;27.80;43.90;;;;;;4974942;28;20284;-62
2022/05/21 12:06:10;;;;;;;1.02;1.02;;;27.80;44.00;;;;;;4976159;28;20680;-63
2022/05/21 12:08:48;;;;;;;1.00;1.00;;;27.70;44.10;;;;;;4964288;28;20331;-62
2022/05/21 12:11:45;;;;;;;1.00;1.00;;;27.70;44.10;;;;;;4976299;28;20213;-62
2022/05/21 12:14:27;;;;;;;1.05;1.05;;;27.70;44.30;;;;;;4976602;28;20307;-62
2022/05/21 12:17:01;;;;;;;1.17;1.08;;;27.60;44.30;;;;;;4976432;28;20586;-62
2022/05/21 12:20:05;;;;;;;1.00;1.00;;;27.60;44.30;;;;;;4975038;28;20227;-62
2022/05/21 12:22:59;;;;;;;1.15;1.15;;;27.60;44.40;;;;;;4976424;28;20606;-62
2022/05/21 12:25:59;;;;;;;1.33;1.27;;;27.60;44.50;;;;;;4974813;28;20197;-62
2022/05/21 12:28:46;;;;;;;1.10;1.10;;;27.50;44.50;;;;;;4976289;28;20166;-62
2022/05/21 12:31:22;;;;;;;1.08;0.98;;;27.50;44.50;;;;;;4976200;28;20689;-63
2022/05/21 12:33:56;;;;;;;1.30;1.20;;;27.50;44.60;;;;;;4974502;28;20249;-62
2022/05/21 12:36:43;;;;;;;1.10;1.00;;;27.50;44.60;;;;;;4974815;28;20190;-63
2022/05/21 12:39:14;;;;;;;1.10;1.10;;;27.50;44.70;;;;;;4974630;28;20595;-63
2022/05/21 12:41:43;;;;;;;1.10;1.10;;;27.50;44.70;;;;;;4975990;28;20248;-62
2022/05/21 12:44:11;;;;;;;0.95;0.95;;;27.50;44.80;;;;;;4974428;28;20815;-63
2022/05/21 12:46:39;;;;;;;1.00;1.00;;;27.50;44.70;;;;;;4974732;28;20202;-62
2022/05/21 12:49:09;;;;;;;1.08;1.08;;;27.40;44.70;;;;;;4975701;28;20186;-62
2022/05/21 12:51:38;;;;;;;1.20;1.10;;;27.50;44.80;;;;;;4974388;28;20220;-63
2022/05/21 12:54:08;;;;;;;1.27;1.10;;;27.50;44.80;;;;;;4975695;28;20296;-63
2022/05/21 12:56:38;;;;;;;1.02;1.02;;;27.50;45.40;;;;;;4974782;28;20576;-62
2022/05/21 12:59:08;;;;;;;1.00;1.00;;;27.50;44.80;;;;;;4974327;28;20214;-62
2022/05/21 13:01:36;;;;;;;1.85;1.10;;;27.50;44.80;;;;;;4974344;28;20727;-63
2022/05/21 13:04:03;;;;;;;1.00;1.00;;;27.50;44.90;;;;;;4975321;28;20209;-62
2022/05/21 13:06:32;;;;;;;1.30;1.20;;;27.50;44.90;;;;;;4974274;28;20547;-62
2022/05/21 13:09:00;;;;;;;1.00;1.00;;;27.50;45.00;;;;;;4974386;28;20555;-62
2022/05/21 13:11:32;;;;;;;1.13;1.13;;;27.40;44.90;;;;;;4975467;28;20201;-62
2022/05/21 13:14:03;;;;;;;1.02;1.02;;;27.40;44.90;;;;;;4974866;28;20217;-62
2022/05/21 13:16:30;;;;;;;1.17;1.10;;;27.50;45.10;;;;;;4975250;28;20210;-63
2022/05/21 13:19:18;;;;;;;1.27;1.27;;;27.40;45.00;;;;;;4973890;28;20276;-62
2022/05/21 13:21:49;;;;;;;1.00;1.00;;;27.40;45.20;;;;;;4974178;28;20209;-62
2022/05/21 13:24:31;;;;;;;1.10;1.10;;;27.40;45.20;;;;;;4973743;28;20229;-62
2022/05/21 13:27:03;;;;;;;1.00;1.00;;;27.40;45.10;;;;;;4975466;28;20308;-62
2022/05/21 13:29:32;;;;;;;1.00;1.00;;;27.40;45.10;;;;;;4973738;28;20562;-62
2022/05/21 13:32:15;;;;;;;1.20;1.20;;;27.40;45.10;;;;;;4975031;28;20197;-62
2022/05/21 13:34:42;;;;;;;1.20;1.10;;;27.50;45.20;;;;;;4973891;28;20217;-62
2022/05/21 13:37:09;;;;;;;1.10;1.10;;;27.40;45.20;;;;;;4973710;28;20648;-63
2022/05/21 13:39:37;;;;;;;1.17;1.10;;;27.40;45.10;;;;;;4974854;28;20229;-62
2022/05/21 13:42:07;;;;;;;1.10;1.10;;;27.40;45.20;;;;;;4973753;28;20216;-62
2022/05/21 13:44:36;;;;;;;1.10;1.10;;;27.40;45.20;;;;;;4973608;28;20223;-62